Terminal Aerodrome Forecast
Issued by NWS

Home | Current Version | Previous Version | Text Only | Print | Product List | Glossary On
Versions: 1 2 3 4 5 6 7 8 9 10 11 12 13 14 15 16 17 18
000
FTUS45 KGJT 250055 AAA
TAFTEX
TAF AMD
KTEX 250055Z 2501/2524 22008G16KT P6SM SCT140
     FM250400 20007KT P6SM FEW200 WS020/25035KT
     FM251500 21015G21KT P6SM SCT200
     FM251800 23017G31KT P6SM SCT150
     FM252300 29013G23KT P6SM SCT130=

USA.gov is the U.S. government's official web portal to all federal, state and local government web resources and services.